sensor_id;sensor_type;location;lat;lon;timestamp;temperature;humidity
42907;DHT22;28552;51.146;6.576;2022-08-04T00:03:12;21.40;99.90
42907;DHT22;28552;51.146;6.576;2022-08-04T00:06:22;21.40;99.90
42907;DHT22;28552;51.146;6.576;2022-08-04T00:09:38;21.30;99.90
42907;DHT22;28552;51.146;6.576;2022-08-04T00:12:47;21.20;99.90
42907;DHT22;28552;51.146;6.576;2022-08-04T00:15:55;21.20;99.90
42907;DHT22;28552;51.146;6.576;2022-08-04T00:19:00;21.20;99.90
42907;DHT22;28552;51.146;6.576;2022-08-04T00:22:03;21.20;99.90
42907;DHT22;28552;51.146;6.576;2022-08-04T00:25:06;21.20;99.90
42907;DHT22;28552;51.146;6.576;2022-08-04T00:28:07;21.10;99.90
42907;DHT22;28552;51.146;6.576;2022-08-04T00:31:10;21.10;99.90
42907;DHT22;28552;51.146;6.576;2022-08-04T00:34:11;21.00;99.90
42907;DHT22;28552;51.146;6.576;2022-08-04T00:37:13;21.00;99.90
42907;DHT22;28552;51.146;6.576;2022-08-04T00:40:24;21.00;99.90
42907;DHT22;28552;51.146;6.576;2022-08-04T00:43:47;21.00;99.90
42907;DHT22;28552;51.146;6.576;2022-08-04T00:54:05;20.80;99.90
42907;DHT22;28552;51.146;6.576;2022-08-04T00:57:05;20.70;99.90
42907;DHT22;28552;51.146;6.576;2022-08-04T01:00:12;20.60;99.90
42907;DHT22;28552;51.146;6.576;2022-08-04T01:03:19;20.50;99.90
42907;DHT22;28552;51.146;6.576;2022-08-04T01:06:42;20.40;99.90
42907;DHT22;28552;51.146;6.576;2022-08-04T01:10:02;20.30;99.90
42907;DHT22;28552;51.146;6.576;2022-08-04T01:16:15;20.30;99.90
42907;DHT22;28552;51.146;6.576;2022-08-04T01:19:32;20.40;99.90
42907;DHT22;28552;51.146;6.576;2022-08-04T01:23:01;20.30;99.90
42907;DHT22;28552;51.146;6.576;2022-08-04T01:29:09;20.40;99.90
42907;DHT22;28552;51.146;6.576;2022-08-04T01:32:19;20.50;99.90
42907;DHT22;28552;51.146;6.576;2022-08-04T01:35:27;20.50;99.90
42907;DHT22;28552;51.146;6.576;2022-08-04T01:38:37;20.50;99.90
42907;DHT22;28552;51.146;6.576;2022-08-04T01:41:38;20.60;99.90
42907;DHT22;28552;51.146;6.576;2022-08-04T01:44:40;20.70;99.90
42907;DHT22;28552;51.146;6.576;2022-08-04T01:47:48;20.70;99.90
42907;DHT22;28552;51.146;6.576;2022-08-04T01:50:51;20.70;99.90
42907;DHT22;28552;51.146;6.576;2022-08-04T01:53:51;20.70;99.90
42907;DHT22;28552;51.146;6.576;2022-08-04T01:56:53;20.70;99.90
42907;DHT22;28552;51.146;6.576;2022-08-04T01:59:57;20.70;99.90
42907;DHT22;28552;51.146;6.576;2022-08-04T02:02:58;20.70;99.90
42907;DHT22;28552;51.146;6.576;2022-08-04T02:09:41;20.50;99.90
42907;DHT22;28552;51.146;6.576;2022-08-04T02:13:04;20.30;99.90
42907;DHT22;28552;51.146;6.576;2022-08-04T02:16:30;20.20;99.90
42907;DHT22;28552;51.146;6.576;2022-08-04T02:19:35;20.10;99.90
42907;DHT22;28552;51.146;6.576;2022-08-04T02:22:45;19.80;99.90
42907;DHT22;28552;51.146;6.576;2022-08-04T02:25:55;19.70;99.90
42907;DHT22;28552;51.146;6.576;2022-08-04T02:29:08;19.60;99.90
42907;DHT22;28552;51.146;6.576;2022-08-04T02:32:25;19.50;99.90
42907;DHT22;28552;51.146;6.576;2022-08-04T02:35:26;19.50;99.90
42907;DHT22;28552;51.146;6.576;2022-08-04T02:38:52;19.50;99.90
42907;DHT22;28552;51.146;6.576;2022-08-04T02:41:54;19.50;99.90
42907;DHT22;28552;51.146;6.576;2022-08-04T02:44:57;19.50;99.90
42907;DHT22;28552;51.146;6.576;2022-08-04T02:48:00;19.40;99.90
42907;DHT22;28552;51.146;6.576;2022-08-04T02:51:02;19.50;99.90
42907;DHT22;28552;51.146;6.576;2022-08-04T02:54:06;19.50;99.90
42907;DHT22;28552;51.146;6.576;2022-08-04T02:57:08;19.40;99.90
42907;DHT22;28552;51.146;6.576;2022-08-04T03:00:12;19.40;99.90
42907;DHT22;28552;51.146;6.576;2022-08-04T03:03:30;19.50;99.90
42907;DHT22;28552;51.146;6.576;2022-08-04T03:11:01;19.80;99.90
42907;DHT22;28552;51.146;6.576;2022-08-04T03:55:21;19.40;99.90
42907;DHT22;28552;51.146;6.576;2022-08-04T04:05:39;19.10;99.90
42907;DHT22;28552;51.146;6.576;2022-08-04T04:09:09;18.90;99.90
42907;DHT22;28552;51.146;6.576;2022-08-04T04:12:37;18.80;99.90
42907;DHT22;28552;51.146;6.576;2022-08-04T04:19:12;19.00;99.90
42907;DHT22;28552;51.146;6.576;2022-08-04T04:38:29;19.70;99.90
42907;DHT22;28552;51.146;6.576;2022-08-04T04:44:51;19.90;99.90
42907;DHT22;28552;51.146;6.576;2022-08-04T04:48:07;19.90;99.90
42907;DHT22;28552;51.146;6.576;2022-08-04T04:51:18;20.00;99.90
42907;DHT22;28552;51.146;6.576;2022-08-04T04:57:23;20.00;99.90
42907;DHT22;28552;51.146;6.576;2022-08-04T05:00:42;20.10;99.90
42907;DHT22;28552;51.146;6.576;2022-08-04T05:03:55;20.10;99.90
42907;DHT22;28552;51.146;6.576;2022-08-04T05:07:30;20.10;99.90
42907;DHT22;28552;51.146;6.576;2022-08-04T05:14:04;20.30;99.90
42907;DHT22;28552;51.146;6.576;2022-08-04T05:17:19;20.40;99.90
42907;DHT22;28552;51.146;6.576;2022-08-04T05:20:26;20.50;99.90
42907;DHT22;28552;51.146;6.576;2022-08-04T05:23:29;20.60;99.90
42907;DHT22;28552;51.146;6.576;2022-08-04T05:26:36;20.60;99.90
42907;DHT22;28552;51.146;6.576;2022-08-04T05:29:51;20.70;99.90
42907;DHT22;28552;51.146;6.576;2022-08-04T05:32:58;20.90;99.90
42907;DHT22;28552;51.146;6.576;2022-08-04T05:36:05;21.00;99.90
42907;DHT22;28552;51.146;6.576;2022-08-04T05:39:15;21.10;99.90
42907;DHT22;28552;51.146;6.576;2022-08-04T05:42:16;21.10;99.90
42907;DHT22;28552;51.146;6.576;2022-08-04T05:45:18;21.20;99.90
42907;DHT22;28552;51.146;6.576;2022-08-04T05:48:19;21.20;99.90
42907;DHT22;28552;51.146;6.576;2022-08-04T05:51:20;21.20;99.90
42907;DHT22;28552;51.146;6.576;2022-08-04T05:54:21;21.20;99.90
42907;DHT22;28552;51.146;6.576;2022-08-04T05:57:23;21.30;99.90
42907;DHT22;28552;51.146;6.576;2022-08-04T06:00:25;21.50;99.90
42907;DHT22;28552;51.146;6.576;2022-08-04T06:03:29;21.70;99.90
42907;DHT22;28552;51.146;6.576;2022-08-04T06:06:31;21.80;99.90
42907;DHT22;28552;51.146;6.576;2022-08-04T06:09:32;21.90;99.90
42907;DHT22;28552;51.146;6.576;2022-08-04T06:12:46;22.10;99.90
42907;DHT22;28552;51.146;6.576;2022-08-04T06:15:49;22.40;99.90
42907;DHT22;28552;51.146;6.576;2022-08-04T06:18:52;22.70;99.90
42907;DHT22;28552;51.146;6.576;2022-08-04T06:21:54;23.00;99.90
42907;DHT22;28552;51.146;6.576;2022-08-04T06:24:57;23.30;99.90
42907;DHT22;28552;51.146;6.576;2022-08-04T06:28:00;23.60;99.90
42907;DHT22;28552;51.146;6.576;2022-08-04T06:31:01;23.90;99.90
42907;DHT22;28552;51.146;6.576;2022-08-04T06:34:05;24.10;99.90
42907;DHT22;28552;51.146;6.576;2022-08-04T06:37:07;24.40;99.90
42907;DHT22;28552;51.146;6.576;2022-08-04T06:40:12;24.70;99.90
42907;DHT22;28552;51.146;6.576;2022-08-04T06:43:12;25.00;99.90
42907;DHT22;28552;51.146;6.576;2022-08-04T06:46:13;25.20;99.90
42907;DHT22;28552;51.146;6.576;2022-08-04T06:49:14;25.40;99.90
42907;DHT22;28552;51.146;6.576;2022-08-04T06:52:18;25.60;99.90
42907;DHT22;28552;51.146;6.576;2022-08-04T06:55:19;25.80;99.90
42907;DHT22;28552;51.146;6.576;2022-08-04T06:58:21;26.00;99.90
42907;DHT22;28552;51.146;6.576;2022-08-04T07:01:23;26.20;99.90
42907;DHT22;28552;51.146;6.576;2022-08-04T07:04:24;26.30;99.70
42907;DHT22;28552;51.146;6.576;2022-08-04T07:07:25;26.40;98.90
42907;DHT22;28552;51.146;6.576;2022-08-04T07:10:27;26.70;98.40
42907;DHT22;28552;51.146;6.576;2022-08-04T07:13:30;26.90;97.90
42907;DHT22;28552;51.146;6.576;2022-08-04T07:16:32;27.10;97.00
42907;DHT22;28552;51.146;6.576;2022-08-04T07:19:35;27.30;96.70
42907;DHT22;28552;51.146;6.576;2022-08-04T07:22:36;27.40;96.10
42907;DHT22;28552;51.146;6.576;2022-08-04T07:25:38;27.40;96.00
42907;DHT22;28552;51.146;6.576;2022-08-04T07:28:40;27.50;95.40
42907;DHT22;28552;51.146;6.576;2022-08-04T07:31:41;27.50;95.30
42907;DHT22;28552;51.146;6.576;2022-08-04T07:34:42;27.60;95.20
42907;DHT22;28552;51.146;6.576;2022-08-04T07:37:43;27.60;95.00
42907;DHT22;28552;51.146;6.576;2022-08-04T07:40:44;27.70;94.80
42907;DHT22;28552;51.146;6.576;2022-08-04T07:43:45;27.70;94.30
42907;DHT22;28552;51.146;6.576;2022-08-04T07:46:46;27.90;93.90
42907;DHT22;28552;51.146;6.576;2022-08-04T07:49:47;28.20;93.60
42907;DHT22;28552;51.146;6.576;2022-08-04T07:52:48;28.30;92.90
42907;DHT22;28552;51.146;6.576;2022-08-04T07:55:49;28.50;92.80
42907;DHT22;28552;51.146;6.576;2022-08-04T07:58:49;28.70;92.10
42907;DHT22;28552;51.146;6.576;2022-08-04T08:01:50;28.90;91.60
42907;DHT22;28552;51.146;6.576;2022-08-04T08:04:51;29.10;91.80
42907;DHT22;28552;51.146;6.576;2022-08-04T08:07:52;29.20;91.40
42907;DHT22;28552;51.146;6.576;2022-08-04T08:10:54;29.40;90.60
42907;DHT22;28552;51.146;6.576;2022-08-04T08:13:55;29.70;90.30
42907;DHT22;28552;51.146;6.576;2022-08-04T08:16:58;30.00;88.80
42907;DHT22;28552;51.146;6.576;2022-08-04T08:19:58;30.30;87.70
42907;DHT22;28552;51.146;6.576;2022-08-04T08:23:01;30.50;87.30
42907;DHT22;28552;51.146;6.576;2022-08-04T08:26:01;30.60;85.60
42907;DHT22;28552;51.146;6.576;2022-08-04T08:29:02;30.50;85.20
42907;DHT22;28552;51.146;6.576;2022-08-04T08:32:05;30.60;85.00
42907;DHT22;28552;51.146;6.576;2022-08-04T08:35:07;30.70;83.60
42907;DHT22;28552;51.146;6.576;2022-08-04T08:38:09;30.80;81.70
42907;DHT22;28552;51.146;6.576;2022-08-04T08:41:16;30.90;80.70
42907;DHT22;28552;51.146;6.576;2022-08-04T08:58:00;30.50;76.80
42907;DHT22;28552;51.146;6.576;2022-08-04T09:08:05;29.60;79.40
42907;DHT22;28552;51.146;6.576;2022-08-04T09:11:15;29.50;80.20
42907;DHT22;28552;51.146;6.576;2022-08-04T09:14:34;29.50;80.60
42907;DHT22;28552;51.146;6.576;2022-08-04T09:17:44;29.40;80.40
42907;DHT22;28552;51.146;6.576;2022-08-04T09:20:50;29.40;79.10
42907;DHT22;28552;51.146;6.576;2022-08-04T09:27:42;29.50;77.80
42907;DHT22;28552;51.146;6.576;2022-08-04T09:30:54;29.80;77.10
42907;DHT22;28552;51.146;6.576;2022-08-04T09:37:38;30.00;74.20
42907;DHT22;28552;51.146;6.576;2022-08-04T09:47:18;30.50;72.30
42907;DHT22;28552;51.146;6.576;2022-08-04T09:50:33;30.60;72.10
42907;DHT22;28552;51.146;6.576;2022-08-04T09:53:54;30.70;71.60
42907;DHT22;28552;51.146;6.576;2022-08-04T10:00:28;30.80;67.50
42907;DHT22;28552;51.146;6.576;2022-08-04T10:03:34;30.90;67.30
42907;DHT22;28552;51.146;6.576;2022-08-04T10:06:42;31.00;68.00
42907;DHT22;28552;51.146;6.576;2022-08-04T10:13:12;31.10;66.90
42907;DHT22;28552;51.146;6.576;2022-08-04T10:19:37;31.00;65.00
42907;DHT22;28552;51.146;6.576;2022-08-04T10:22:44;31.00;64.20
42907;DHT22;28552;51.146;6.576;2022-08-04T10:26:10;30.90;65.10
42907;DHT22;28552;51.146;6.576;2022-08-04T10:29:21;30.80;66.00
42907;DHT22;28552;51.146;6.576;2022-08-04T10:32:24;30.80;65.90
42907;DHT22;28552;51.146;6.576;2022-08-04T10:35:28;30.80;65.80
42907;DHT22;28552;51.146;6.576;2022-08-04T10:38:41;30.80;66.40
42907;DHT22;28552;51.146;6.576;2022-08-04T10:41:51;30.80;66.80
42907;DHT22;28552;51.146;6.576;2022-08-04T10:45:13;30.90;65.50
42907;DHT22;28552;51.146;6.576;2022-08-04T10:55:18;30.90;64.70
42907;DHT22;28552;51.146;6.576;2022-08-04T10:58:21;30.80;64.30
42907;DHT22;28552;51.146;6.576;2022-08-04T11:01:31;30.90;64.70
42907;DHT22;28552;51.146;6.576;2022-08-04T11:11:40;31.10;64.20
42907;DHT22;28552;51.146;6.576;2022-08-04T11:14:50;31.00;63.50
42907;DHT22;28552;51.146;6.576;2022-08-04T11:17:55;30.80;64.70
42907;DHT22;28552;51.146;6.576;2022-08-04T11:21:13;30.70;65.40
42907;DHT22;28552;51.146;6.576;2022-08-04T11:24:30;30.50;65.60
42907;DHT22;28552;51.146;6.576;2022-08-04T11:27:42;30.40;65.90
42907;DHT22;28552;51.146;6.576;2022-08-04T11:30:51;30.30;65.10
42907;DHT22;28552;51.146;6.576;2022-08-04T11:37:28;30.00;64.60
42907;DHT22;28552;51.146;6.576;2022-08-04T11:40:41;29.90;65.20
42907;DHT22;28552;51.146;6.576;2022-08-04T11:43:50;29.70;65.20
42907;DHT22;28552;51.146;6.576;2022-08-04T11:46:58;29.60;65.80
42907;DHT22;28552;51.146;6.576;2022-08-04T11:50:17;29.50;66.50
42907;DHT22;28552;51.146;6.576;2022-08-04T11:53:23;29.50;66.60
42907;DHT22;28552;51.146;6.576;2022-08-04T11:56:25;29.50;66.60
42907;DHT22;28552;51.146;6.576;2022-08-04T11:59:26;29.60;66.50
42907;DHT22;28552;51.146;6.576;2022-08-04T12:02:40;29.70;66.70
42907;DHT22;28552;51.146;6.576;2022-08-04T12:09:23;29.90;67.40
42907;DHT22;28552;51.146;6.576;2022-08-04T12:12:45;29.90;67.80
42907;DHT22;28552;51.146;6.576;2022-08-04T12:19:28;29.70;68.00
42907;DHT22;28552;51.146;6.576;2022-08-04T12:22:36;29.60;69.00
42907;DHT22;28552;51.146;6.576;2022-08-04T12:25:39;29.60;71.00
42907;DHT22;28552;51.146;6.576;2022-08-04T12:28:43;29.50;72.20
42907;DHT22;28552;51.146;6.576;2022-08-04T12:32:03;29.50;73.70
42907;DHT22;28552;51.146;6.576;2022-08-04T12:35:19;29.50;73.20
42907;DHT22;28552;51.146;6.576;2022-08-04T12:38:22;29.50;73.60
42907;DHT22;28552;51.146;6.576;2022-08-04T12:41:29;29.50;73.90
42907;DHT22;28552;51.146;6.576;2022-08-04T12:44:33;29.40;72.90
42907;DHT22;28552;51.146;6.576;2022-08-04T12:47:35;29.30;73.00
42907;DHT22;28552;51.146;6.576;2022-08-04T12:50:37;29.30;73.10
42907;DHT22;28552;51.146;6.576;2022-08-04T12:53:40;29.30;72.60
42907;DHT22;28552;51.146;6.576;2022-08-04T12:56:41;29.40;72.40
42907;DHT22;28552;51.146;6.576;2022-08-04T12:59:45;29.40;72.20
42907;DHT22;28552;51.146;6.576;2022-08-04T13:02:47;29.50;71.50
42907;DHT22;28552;51.146;6.576;2022-08-04T13:05:52;29.50;70.00
42907;DHT22;28552;51.146;6.576;2022-08-04T13:08:54;29.40;69.50
42907;DHT22;28552;51.146;6.576;2022-08-04T13:12:10;29.40;69.00
42907;DHT22;28552;51.146;6.576;2022-08-04T13:15:16;29.40;69.60
42907;DHT22;28552;51.146;6.576;2022-08-04T13:18:17;29.30;69.90
42907;DHT22;28552;51.146;6.576;2022-08-04T13:21:20;29.30;70.70
42907;DHT22;28552;51.146;6.576;2022-08-04T13:24:22;29.30;71.40
42907;DHT22;28552;51.146;6.576;2022-08-04T13:27:23;29.30;71.60
42907;DHT22;28552;51.146;6.576;2022-08-04T13:30:25;29.20;71.90
42907;DHT22;28552;51.146;6.576;2022-08-04T13:33:37;29.30;73.00
42907;DHT22;28552;51.146;6.576;2022-08-04T13:36:38;29.30;73.60
42907;DHT22;28552;51.146;6.576;2022-08-04T13:39:44;29.20;73.80
42907;DHT22;28552;51.146;6.576;2022-08-04T13:42:46;29.10;74.40
42907;DHT22;28552;51.146;6.576;2022-08-04T13:45:49;29.00;75.10
42907;DHT22;28552;51.146;6.576;2022-08-04T13:48:51;28.90;75.90
42907;DHT22;28552;51.146;6.576;2022-08-04T13:51:55;28.80;76.30
42907;DHT22;28552;51.146;6.576;2022-08-04T13:54:56;28.70;77.00
42907;DHT22;28552;51.146;6.576;2022-08-04T13:58:04;28.60;77.80
42907;DHT22;28552;51.146;6.576;2022-08-04T14:01:10;28.50;78.60
42907;DHT22;28552;51.146;6.576;2022-08-04T14:04:19;28.50;79.60
42907;DHT22;28552;51.146;6.576;2022-08-04T14:07:24;28.50;80.40
42907;DHT22;28552;51.146;6.576;2022-08-04T14:10:25;28.40;81.40
42907;DHT22;28552;51.146;6.576;2022-08-04T14:13:30;28.40;81.80
42907;DHT22;28552;51.146;6.576;2022-08-04T14:16:31;28.30;82.10
42907;DHT22;28552;51.146;6.576;2022-08-04T14:19:48;28.20;82.60
42907;DHT22;28552;51.146;6.576;2022-08-04T14:22:48;28.20;83.20
42907;DHT22;28552;51.146;6.576;2022-08-04T14:25:50;28.10;83.60
42907;DHT22;28552;51.146;6.576;2022-08-04T14:28:52;28.00;84.10
42907;DHT22;28552;51.146;6.576;2022-08-04T14:32:00;27.90;84.60
42907;DHT22;28552;51.146;6.576;2022-08-04T14:35:10;27.90;85.20
42907;DHT22;28552;51.146;6.576;2022-08-04T14:38:10;27.80;85.50
42907;DHT22;28552;51.146;6.576;2022-08-04T14:41:12;27.80;85.70
42907;DHT22;28552;51.146;6.576;2022-08-04T14:44:13;27.80;85.90
42907;DHT22;28552;51.146;6.576;2022-08-04T14:47:14;27.70;86.00
42907;DHT22;28552;51.146;6.576;2022-08-04T14:50:14;27.70;86.40
42907;DHT22;28552;51.146;6.576;2022-08-04T14:53:18;27.70;86.80
42907;DHT22;28552;51.146;6.576;2022-08-04T14:56:19;27.70;86.90
42907;DHT22;28552;51.146;6.576;2022-08-04T14:59:20;27.80;87.30
42907;DHT22;28552;51.146;6.576;2022-08-04T15:02:21;27.80;87.70
42907;DHT22;28552;51.146;6.576;2022-08-04T15:05:22;27.70;87.70
42907;DHT22;28552;51.146;6.576;2022-08-04T15:08:23;27.70;88.00
42907;DHT22;28552;51.146;6.576;2022-08-04T15:11:24;27.80;87.80
42907;DHT22;28552;51.146;6.576;2022-08-04T15:14:26;27.90;87.90
42907;DHT22;28552;51.146;6.576;2022-08-04T15:17:27;27.90;87.50
42907;DHT22;28552;51.146;6.576;2022-08-04T15:20:28;27.90;87.50
42907;DHT22;28552;51.146;6.576;2022-08-04T15:23:30;27.80;87.60
42907;DHT22;28552;51.146;6.576;2022-08-04T15:26:36;27.80;87.90
42907;DHT22;28552;51.146;6.576;2022-08-04T15:29:41;27.70;87.90
42907;DHT22;28552;51.146;6.576;2022-08-04T15:32:50;27.70;88.00
42907;DHT22;28552;51.146;6.576;2022-08-04T15:35:56;27.70;88.00
42907;DHT22;28552;51.146;6.576;2022-08-04T15:39:21;27.60;88.30
42907;DHT22;28552;51.146;6.576;2022-08-04T15:45:54;27.40;88.60
42907;DHT22;28552;51.146;6.576;2022-08-04T15:49:17;27.40;88.90
42907;DHT22;28552;51.146;6.576;2022-08-04T15:52:18;27.40;89.10
42907;DHT22;28552;51.146;6.576;2022-08-04T15:55:34;27.50;89.70
42907;DHT22;28552;51.146;6.576;2022-08-04T15:58:48;27.60;90.00
42907;DHT22;28552;51.146;6.576;2022-08-04T16:08:25;28.20;89.10
42907;DHT22;28552;51.146;6.576;2022-08-04T16:14:39;28.60;88.80
42907;DHT22;28552;51.146;6.576;2022-08-04T16:17:40;28.40;88.90
42907;DHT22;28552;51.146;6.576;2022-08-04T16:20:44;28.30;89.60
42907;DHT22;28552;51.146;6.576;2022-08-04T16:23:49;28.30;90.00
42907;DHT22;28552;51.146;6.576;2022-08-04T16:26:58;28.30;90.00
42907;DHT22;28552;51.146;6.576;2022-08-04T16:30:04;28.20;90.10
42907;DHT22;28552;51.146;6.576;2022-08-04T16:33:07;28.20;90.30
42907;DHT22;28552;51.146;6.576;2022-08-04T16:36:11;28.10;90.50
42907;DHT22;28552;51.146;6.576;2022-08-04T16:39:18;28.10;90.80
42907;DHT22;28552;51.146;6.576;2022-08-04T16:42:33;28.30;91.40
42907;DHT22;28552;51.146;6.576;2022-08-04T16:45:51;28.50;91.10
42907;DHT22;28552;51.146;6.576;2022-08-04T16:49:05;28.60;90.80
42907;DHT22;28552;51.146;6.576;2022-08-04T16:52:07;28.50;90.90
42907;DHT22;28552;51.146;6.576;2022-08-04T16:55:07;28.50;90.80
42907;DHT22;28552;51.146;6.576;2022-08-04T16:58:08;28.50;90.90
42907;DHT22;28552;51.146;6.576;2022-08-04T17:01:14;28.50;91.30
42907;DHT22;28552;51.146;6.576;2022-08-04T17:04:28;28.60;91.60
42907;DHT22;28552;51.146;6.576;2022-08-04T17:07:49;28.70;91.50
42907;DHT22;28552;51.146;6.576;2022-08-04T17:10:50;28.80;91.30
42907;DHT22;28552;51.146;6.576;2022-08-04T17:13:51;29.00;91.40
42907;DHT22;28552;51.146;6.576;2022-08-04T17:16:54;29.40;90.60
42907;DHT22;28552;51.146;6.576;2022-08-04T17:19:55;29.70;89.90
42907;DHT22;28552;51.146;6.576;2022-08-04T17:26:33;30.10;87.90
42907;DHT22;28552;51.146;6.576;2022-08-04T17:29:34;30.00;86.70
42907;DHT22;28552;51.146;6.576;2022-08-04T17:32:35;29.70;87.00
42907;DHT22;28552;51.146;6.576;2022-08-04T17:35:39;29.30;87.80
42907;DHT22;28552;51.146;6.576;2022-08-04T17:41:42;28.50;89.50
42907;DHT22;28552;51.146;6.576;2022-08-04T17:44:43;28.10;90.20
42907;DHT22;28552;51.146;6.576;2022-08-04T17:47:51;28.00;90.90
42907;DHT22;28552;51.146;6.576;2022-08-04T17:50:52;28.10;90.30
42907;DHT22;28552;51.146;6.576;2022-08-04T17:53:57;28.10;90.20
42907;DHT22;28552;51.146;6.576;2022-08-04T17:57:00;27.90;90.30
42907;DHT22;28552;51.146;6.576;2022-08-04T18:00:00;27.70;90.50
42907;DHT22;28552;51.146;6.576;2022-08-04T18:03:01;27.50;90.70
42907;DHT22;28552;51.146;6.576;2022-08-04T18:06:11;27.40;90.80
42907;DHT22;28552;51.146;6.576;2022-08-04T18:09:11;27.40;90.80
42907;DHT22;28552;51.146;6.576;2022-08-04T18:12:21;27.40;90.80
42907;DHT22;28552;51.146;6.576;2022-08-04T18:15:23;27.40;90.80
42907;DHT22;28552;51.146;6.576;2022-08-04T18:18:24;27.30;90.80
42907;DHT22;28552;51.146;6.576;2022-08-04T18:21:25;27.20;90.90
42907;DHT22;28552;51.146;6.576;2022-08-04T18:24:27;27.20;91.10
42907;DHT22;28552;51.146;6.576;2022-08-04T18:27:29;27.00;91.20
42907;DHT22;28552;51.146;6.576;2022-08-04T18:30:31;27.00;91.40
42907;DHT22;28552;51.146;6.576;2022-08-04T18:33:31;26.80;91.50
42907;DHT22;28552;51.146;6.576;2022-08-04T18:36:33;26.60;91.80
42907;DHT22;28552;51.146;6.576;2022-08-04T18:39:33;26.40;92.30
42907;DHT22;28552;51.146;6.576;2022-08-04T18:42:35;26.20;92.60
42907;DHT22;28552;51.146;6.576;2022-08-04T18:45:35;26.00;93.00
42907;DHT22;28552;51.146;6.576;2022-08-04T18:48:36;25.90;93.70
42907;DHT22;28552;51.146;6.576;2022-08-04T18:51:37;25.80;93.70
42907;DHT22;28552;51.146;6.576;2022-08-04T18:54:37;25.70;94.10
42907;DHT22;28552;51.146;6.576;2022-08-04T18:57:38;25.60;94.40
42907;DHT22;28552;51.146;6.576;2022-08-04T19:00:38;25.50;94.70
42907;DHT22;28552;51.146;6.576;2022-08-04T19:03:40;25.40;95.10
42907;DHT22;28552;51.146;6.576;2022-08-04T19:06:42;25.30;95.30
42907;DHT22;28552;51.146;6.576;2022-08-04T19:09:43;25.30;95.60
42907;DHT22;28552;51.146;6.576;2022-08-04T19:12:44;25.20;96.10
42907;DHT22;28552;51.146;6.576;2022-08-04T19:15:45;25.10;96.10
42907;DHT22;28552;51.146;6.576;2022-08-04T19:18:45;25.00;96.30
42907;DHT22;28552;51.146;6.576;2022-08-04T19:21:46;24.90;96.60
42907;DHT22;28552;51.146;6.576;2022-08-04T19:24:46;24.90;96.70
42907;DHT22;28552;51.146;6.576;2022-08-04T19:27:47;24.80;96.90
42907;DHT22;28552;51.146;6.576;2022-08-04T19:30:47;24.70;97.10
42907;DHT22;28552;51.146;6.576;2022-08-04T19:33:48;24.60;97.20
42907;DHT22;28552;51.146;6.576;2022-08-04T19:36:49;24.60;97.30
42907;DHT22;28552;51.146;6.576;2022-08-04T19:39:49;24.60;97.50
42907;DHT22;28552;51.146;6.576;2022-08-04T19:42:52;24.50;97.60
42907;DHT22;28552;51.146;6.576;2022-08-04T19:45:52;24.50;97.80
42907;DHT22;28552;51.146;6.576;2022-08-04T19:48:53;24.40;98.00
42907;DHT22;28552;51.146;6.576;2022-08-04T19:51:53;24.40;98.20
42907;DHT22;28552;51.146;6.576;2022-08-04T19:54:55;24.40;98.30
42907;DHT22;28552;51.146;6.576;2022-08-04T19:58:00;24.40;98.30
42907;DHT22;28552;51.146;6.576;2022-08-04T20:01:01;24.40;98.50
42907;DHT22;28552;51.146;6.576;2022-08-04T20:04:02;24.30;98.80
42907;DHT22;28552;51.146;6.576;2022-08-04T20:07:02;24.10;99.00
42907;DHT22;28552;51.146;6.576;2022-08-04T20:10:05;24.00;99.20
42907;DHT22;28552;51.146;6.576;2022-08-04T20:13:06;24.00;99.50
42907;DHT22;28552;51.146;6.576;2022-08-04T20:16:06;23.90;99.70
42907;DHT22;28552;51.146;6.576;2022-08-04T20:19:07;23.90;99.80
42907;DHT22;28552;51.146;6.576;2022-08-04T20:22:08;23.80;99.90
42907;DHT22;28552;51.146;6.576;2022-08-04T20:25:09;23.70;99.90
42907;DHT22;28552;51.146;6.576;2022-08-04T20:28:10;23.70;99.90
42907;DHT22;28552;51.146;6.576;2022-08-04T20:31:10;23.60;99.90
42907;DHT22;28552;51.146;6.576;2022-08-04T20:34:11;23.50;99.90
42907;DHT22;28552;51.146;6.576;2022-08-04T20:37:12;23.50;99.90
42907;DHT22;28552;51.146;6.576;2022-08-04T20:40:12;23.40;99.90
42907;DHT22;28552;51.146;6.576;2022-08-04T20:43:13;23.40;99.90
42907;DHT22;28552;51.146;6.576;2022-08-04T20:46:14;23.40;99.90
42907;DHT22;28552;51.146;6.576;2022-08-04T20:49:15;23.40;99.90
42907;DHT22;28552;51.146;6.576;2022-08-04T20:52:15;23.30;99.90
42907;DHT22;28552;51.146;6.576;2022-08-04T20:55:16;23.30;99.90
42907;DHT22;28552;51.146;6.576;2022-08-04T20:58:16;23.30;99.90
42907;DHT22;28552;51.146;6.576;2022-08-04T21:01:17;23.30;99.90
42907;DHT22;28552;51.146;6.576;2022-08-04T21:04:17;23.40;99.90
42907;DHT22;28552;51.146;6.576;2022-08-04T21:07:33;23.30;99.90
42907;DHT22;28552;51.146;6.576;2022-08-04T21:10:33;23.40;99.90
42907;DHT22;28552;51.146;6.576;2022-08-04T21:13:34;23.30;99.90
42907;DHT22;28552;51.146;6.576;2022-08-04T21:16:34;23.30;99.90
42907;DHT22;28552;51.146;6.576;2022-08-04T21:19:35;23.30;99.60
42907;DHT22;28552;51.146;6.576;2022-08-04T21:22:36;23.20;98.90
42907;DHT22;28552;51.146;6.576;2022-08-04T21:25:36;23.10;98.40
42907;DHT22;28552;51.146;6.576;2022-08-04T21:28:37;23.10;98.10
42907;DHT22;28552;51.146;6.576;2022-08-04T21:31:37;23.10;97.80
42907;DHT22;28552;51.146;6.576;2022-08-04T21:34:38;23.10;97.90
42907;DHT22;28552;51.146;6.576;2022-08-04T21:37:43;23.00;97.70
42907;DHT22;28552;51.146;6.576;2022-08-04T21:40:52;22.90;97.50
42907;DHT22;28552;51.146;6.576;2022-08-04T21:43:53;22.90;97.30
42907;DHT22;28552;51.146;6.576;2022-08-04T21:46:53;22.90;97.20
42907;DHT22;28552;51.146;6.576;2022-08-04T21:49:54;22.90;97.00
42907;DHT22;28552;51.146;6.576;2022-08-04T21:52:54;22.80;97.00
42907;DHT22;28552;51.146;6.576;2022-08-04T21:55:55;22.70;96.90
42907;DHT22;28552;51.146;6.576;2022-08-04T21:58:55;22.60;96.90
42907;DHT22;28552;51.146;6.576;2022-08-04T22:01:58;22.60;96.70
42907;DHT22;28552;51.146;6.576;2022-08-04T22:04:59;22.60;96.80
42907;DHT22;28552;51.146;6.576;2022-08-04T22:07:59;22.50;96.80
42907;DHT22;28552;51.146;6.576;2022-08-04T22:11:00;22.50;96.80
42907;DHT22;28552;51.146;6.576;2022-08-04T22:14:05;22.50;96.90
42907;DHT22;28552;51.146;6.576;2022-08-04T22:17:07;22.60;97.00
42907;DHT22;28552;51.146;6.576;2022-08-04T22:20:09;22.50;97.40
42907;DHT22;28552;51.146;6.576;2022-08-04T22:23:09;22.40;99.80
42907;DHT22;28552;51.146;6.576;2022-08-04T22:26:13;22.20;99.90
42907;DHT22;28552;51.146;6.576;2022-08-04T22:29:14;21.90;99.90
42907;DHT22;28552;51.146;6.576;2022-08-04T22:32:14;21.50;99.90
42907;DHT22;28552;51.146;6.576;2022-08-04T22:35:16;21.30;99.90
42907;DHT22;28552;51.146;6.576;2022-08-04T22:38:18;21.20;99.90